الصفحة الرئيسية
METAR-TAF:

METAR-TAF

مطار :

مطار واغادوغو

واغادوغو, بوركينا فاسو

دائرة عرض: 12-21N, خط طول: 001-31W, ارتفاع: 316 متر

مراقبة الطقس الحالي

تاريخ ووقت الإصدار 31 دقيقة قبل الساعة 06:00UTC
رياح هادئة
درجة الحرارة 25°درجة مئوية
الرطوبة 89%
ضغط 1014 hPa
الرؤية 10 كم أو أكثر
الغيوم لا تقل 1500 م ولا وجود لمزنة ركامية السحاب الأسود

METAR: DFFD 160600Z 00000KT CAVOK 25/23 Q1014 NOSIG

زمن: 06:31 (06:31 UTC)

توقعات

تاريخ ووقت الإصدار 1ساعة و 31 دقيقة قبل الساعة 05:00UTC
التوقعات صالحة من16 الساعة 06 UTC إلى 17 الساعة 12 UTC
ريح 8 عقدة من الغرب/الجنوب الغربي
الرؤية 10 كم أو أكثر
غيوم متفرقة على ارتفاع 2000 قدم
مؤقت
من 16 الساعة 08 UTC إلى 16 الساعة 15 UTC
ريح 25 عقدة من الشرق تتزايد حتى 45 عقدة
الرؤية: 2500 متر
غيوم متفرقة على ارتفاع 2000 قدم
غيوم متفرقة على ارتفاع 3300 قدم, مزنة ركامية.
عاصفة مفاجئة, عاصفة رعدية, مطر

TAF: DFFD 160500Z 1606/1712 24008KT 9999 SCT020 TEMPO 1608/1615 09025G45KT 2500 SQ TSRA SCT020 SCT033CB

أرصاد الطقس والتوقعات من أكثر من 4000 مطار (تقارير الطقس للمطار METAR والتنبؤ بالطقس بالمطارTAF).

المحطات المتاحة هي النقط الصفراء والحمراء على الخريطة.

حرك المؤشر فوق النقطة لمعرفة اسم المحطة.

ثم انقر لمعرفة أرصاد وتوقعات الطقس.

لتغيير الخارطة: اضغط على الأزرار الخضراء مع رمز الصليب الأسود للتكبير. على الزر الأخضر مع شرطة للتصغير، أو على الأسهم الخضراء للخرائط المجاورة.


METAR-TAF: